sensor_id;sensor_type;location;lat;lon;timestamp;P1;durP1;ratioP1;P2;durP2;ratioP2
7203;SDS011;3643;52.460;13.322;2023-02-15T00:00:10;38.83;;;18.93;;
7203;SDS011;3643;52.460;13.322;2023-02-15T00:02:39;36.97;;;18.67;;
7203;SDS011;3643;52.460;13.322;2023-02-15T00:05:08;37.13;;;19.03;;
7203;SDS011;3643;52.460;13.322;2023-02-15T00:07:36;39.13;;;19.90;;
7203;SDS011;3643;52.460;13.322;2023-02-15T00:10:06;38.53;;;18.27;;
7203;SDS011;3643;52.460;13.322;2023-02-15T00:12:36;41.40;;;20.93;;
7203;SDS011;3643;52.460;13.322;2023-02-15T00:15:04;38.33;;;19.93;;
7203;SDS011;3643;52.460;13.322;2023-02-15T00:17:35;40.20;;;19.93;;
7203;SDS011;3643;52.460;13.322;2023-02-15T00:20:03;37.33;;;19.20;;
7203;SDS011;3643;52.460;13.322;2023-02-15T00:22:33;35.27;;;19.03;;
7203;SDS011;3643;52.460;13.322;2023-02-15T00:25:01;39.13;;;19.33;;
7203;SDS011;3643;52.460;13.322;2023-02-15T00:27:30;44.67;;;21.17;;
7203;SDS011;3643;52.460;13.322;2023-02-15T00:30:00;42.23;;;21.53;;
7203;SDS011;3643;52.460;13.322;2023-02-15T00:32:29;43.87;;;22.50;;
7203;SDS011;3643;52.460;13.322;2023-02-15T00:34:59;40.47;;;21.17;;
7203;SDS011;3643;52.460;13.322;2023-02-15T00:37:27;40.20;;;20.30;;
7203;SDS011;3643;52.460;13.322;2023-02-15T00:39:56;44.57;;;22.47;;
7203;SDS011;3643;52.460;13.322;2023-02-15T00:42:25;46.37;;;22.93;;
7203;SDS011;3643;52.460;13.322;2023-02-15T00:44:53;50.00;;;24.23;;
7203;SDS011;3643;52.460;13.322;2023-02-15T00:47:22;44.93;;;22.63;;
7203;SDS011;3643;52.460;13.322;2023-02-15T00:49:51;44.90;;;23.13;;
7203;SDS011;3643;52.460;13.322;2023-02-15T00:52:21;49.63;;;24.80;;
7203;SDS011;3643;52.460;13.322;2023-02-15T00:54:50;45.03;;;22.43;;
7203;SDS011;3643;52.460;13.322;2023-02-15T00:57:19;44.70;;;22.17;;
7203;SDS011;3643;52.460;13.322;2023-02-15T00:59:47;45.00;;;21.47;;
7203;SDS011;3643;52.460;13.322;2023-02-15T01:02:16;44.70;;;22.17;;
7203;SDS011;3643;52.460;13.322;2023-02-15T01:04:44;47.13;;;22.77;;
7203;SDS011;3643;52.460;13.322;2023-02-15T01:07:13;44.30;;;22.77;;
7203;SDS011;3643;52.460;13.322;2023-02-15T01:09:43;43.00;;;21.57;;
7203;SDS011;3643;52.460;13.322;2023-02-15T01:12:11;48.20;;;22.63;;
7203;SDS011;3643;52.460;13.322;2023-02-15T01:14:40;43.57;;;22.57;;
7203;SDS011;3643;52.460;13.322;2023-02-15T01:17:09;43.87;;;21.60;;
7203;SDS011;3643;52.460;13.322;2023-02-15T01:19:37;43.07;;;22.33;;
7203;SDS011;3643;52.460;13.322;2023-02-15T01:22:06;47.70;;;22.33;;
7203;SDS011;3643;52.460;13.322;2023-02-15T01:24:34;45.10;;;22.60;;
7203;SDS011;3643;52.460;13.322;2023-02-15T01:27:05;45.43;;;24.73;;
7203;SDS011;3643;52.460;13.322;2023-02-15T01:29:33;43.80;;;21.07;;
7203;SDS011;3643;52.460;13.322;2023-02-15T01:32:02;47.67;;;23.17;;
7203;SDS011;3643;52.460;13.322;2023-02-15T01:34:31;44.67;;;22.23;;
7203;SDS011;3643;52.460;13.322;2023-02-15T01:37:00;46.97;;;24.30;;
7203;SDS011;3643;52.460;13.322;2023-02-15T01:39:28;48.37;;;23.17;;
7203;SDS011;3643;52.460;13.322;2023-02-15T01:41:57;49.83;;;24.03;;
7203;SDS011;3643;52.460;13.322;2023-02-15T01:47:28;48.13;;;22.53;;
7203;SDS011;3643;52.460;13.322;2023-02-15T01:50:05;48.43;;;23.37;;
7203;SDS011;3643;52.460;13.322;2023-02-15T01:52:38;48.40;;;22.30;;
7203;SDS011;3643;52.460;13.322;2023-02-15T01:55:12;50.73;;;23.83;;
7203;SDS011;3643;52.460;13.322;2023-02-15T01:57:41;51.60;;;25.03;;
7203;SDS011;3643;52.460;13.322;2023-02-15T02:00:13;51.17;;;24.97;;
7203;SDS011;3643;52.460;13.322;2023-02-15T02:02:43;49.47;;;24.83;;
7203;SDS011;3643;52.460;13.322;2023-02-15T02:05:15;50.03;;;24.53;;
7203;SDS011;3643;52.460;13.322;2023-02-15T02:07:44;47.50;;;23.53;;
7203;SDS011;3643;52.460;13.322;2023-02-15T02:10:16;51.53;;;25.83;;
7203;SDS011;3643;52.460;13.322;2023-02-15T02:12:47;48.33;;;24.17;;
7203;SDS011;3643;52.460;13.322;2023-02-15T02:15:23;51.97;;;26.07;;
7203;SDS011;3643;52.460;13.322;2023-02-15T02:18:02;51.83;;;25.07;;
7203;SDS011;3643;52.460;13.322;2023-02-15T02:24:00;57.27;;;26.33;;
7203;SDS011;3643;52.460;13.322;2023-02-15T02:33:23;55.50;;;25.43;;
7203;SDS011;3643;52.460;13.322;2023-02-15T02:36:07;60.43;;;26.90;;
7203;SDS011;3643;52.460;13.322;2023-02-15T02:38:47;57.17;;;25.77;;
7203;SDS011;3643;52.460;13.322;2023-02-15T02:41:29;58.00;;;27.00;;
7203;SDS011;3643;52.460;13.322;2023-02-15T02:44:09;60.47;;;28.47;;
7203;SDS011;3643;52.460;13.322;2023-02-15T02:46:51;54.00;;;26.07;;
7203;SDS011;3643;52.460;13.322;2023-02-15T02:49:31;57.03;;;26.53;;
7203;SDS011;3643;52.460;13.322;2023-02-15T02:52:02;61.87;;;28.87;;
7203;SDS011;3643;52.460;13.322;2023-02-15T02:54:33;62.77;;;29.20;;
7203;SDS011;3643;52.460;13.322;2023-02-15T02:57:03;72.03;;;30.77;;
7203;SDS011;3643;52.460;13.322;2023-02-15T02:59:36;66.30;;;28.57;;
7203;SDS011;3643;52.460;13.322;2023-02-15T03:02:10;68.60;;;30.40;;
7203;SDS011;3643;52.460;13.322;2023-02-15T03:04:46;66.90;;;29.53;;
7203;SDS011;3643;52.460;13.322;2023-02-15T03:07:25;78.40;;;31.27;;
7203;SDS011;3643;52.460;13.322;2023-02-15T03:09:57;79.03;;;32.73;;
7203;SDS011;3643;52.460;13.322;2023-02-15T03:12:28;75.63;;;31.23;;
7203;SDS011;3643;52.460;13.322;2023-02-15T03:15:00;79.17;;;32.40;;
7203;SDS011;3643;52.460;13.322;2023-02-15T03:17:32;74.43;;;30.53;;
7203;SDS011;3643;52.460;13.322;2023-02-15T03:20:05;78.20;;;32.30;;
7203;SDS011;3643;52.460;13.322;2023-02-15T03:22:38;81.43;;;32.07;;
7203;SDS011;3643;52.460;13.322;2023-02-15T03:25:13;75.67;;;30.07;;
7203;SDS011;3643;52.460;13.322;2023-02-15T03:27:47;71.27;;;31.33;;
7203;SDS011;3643;52.460;13.322;2023-02-15T03:30:20;78.33;;;32.43;;
7203;SDS011;3643;52.460;13.322;2023-02-15T03:32:49;73.03;;;29.70;;
7203;SDS011;3643;52.460;13.322;2023-02-15T03:35:21;71.83;;;30.83;;
7203;SDS011;3643;52.460;13.322;2023-02-15T03:37:53;72.80;;;31.73;;
7203;SDS011;3643;52.460;13.322;2023-02-15T03:40:28;73.87;;;30.20;;
7203;SDS011;3643;52.460;13.322;2023-02-15T03:43:19;76.50;;;30.53;;
7203;SDS011;3643;52.460;13.322;2023-02-15T03:45:56;69.37;;;29.43;;
7203;SDS011;3643;52.460;13.322;2023-02-15T03:48:29;72.00;;;31.10;;
7203;SDS011;3643;52.460;13.322;2023-02-15T03:51:05;72.90;;;31.13;;
7203;SDS011;3643;52.460;13.322;2023-02-15T03:53:54;68.03;;;28.97;;
7203;SDS011;3643;52.460;13.322;2023-02-15T03:56:25;67.93;;;28.87;;
7203;SDS011;3643;52.460;13.322;2023-02-15T03:58:53;72.63;;;28.80;;
7203;SDS011;3643;52.460;13.322;2023-02-15T04:01:40;67.00;;;28.53;;
7203;SDS011;3643;52.460;13.322;2023-02-15T04:04:29;76.23;;;30.67;;
7203;SDS011;3643;52.460;13.322;2023-02-15T04:07:02;67.50;;;29.70;;
7203;SDS011;3643;52.460;13.322;2023-02-15T04:09:32;80.57;;;29.37;;
7203;SDS011;3643;52.460;13.322;2023-02-15T04:12:21;68.33;;;29.20;;
7203;SDS011;3643;52.460;13.322;2023-02-15T04:14:49;76.40;;;31.30;;
7203;SDS011;3643;52.460;13.322;2023-02-15T04:17:35;73.70;;;30.50;;
7203;SDS011;3643;52.460;13.322;2023-02-15T04:20:04;79.17;;;30.90;;
7203;SDS011;3643;52.460;13.322;2023-02-15T04:22:52;70.40;;;29.33;;
7203;SDS011;3643;52.460;13.322;2023-02-15T04:25:38;71.43;;;29.87;;
7203;SDS011;3643;52.460;13.322;2023-02-15T04:28:06;86.43;;;32.00;;
7203;SDS011;3643;52.460;13.322;2023-02-15T04:30:35;71.10;;;30.00;;
7203;SDS011;3643;52.460;13.322;2023-02-15T04:33:03;72.73;;;29.90;;
7203;SDS011;3643;52.460;13.322;2023-02-15T04:35:31;78.30;;;31.50;;
7203;SDS011;3643;52.460;13.322;2023-02-15T04:38:01;87.40;;;33.53;;
7203;SDS011;3643;52.460;13.322;2023-02-15T04:40:30;91.03;;;34.83;;
7203;SDS011;3643;52.460;13.322;2023-02-15T04:42:58;84.20;;;31.37;;
7203;SDS011;3643;52.460;13.322;2023-02-15T04:45:26;80.60;;;32.23;;
7203;SDS011;3643;52.460;13.322;2023-02-15T04:47:54;74.57;;;31.53;;
7203;SDS011;3643;52.460;13.322;2023-02-15T04:50:23;78.30;;;31.33;;
7203;SDS011;3643;52.460;13.322;2023-02-15T04:52:51;73.47;;;29.53;;
7203;SDS011;3643;52.460;13.322;2023-02-15T04:55:21;65.93;;;28.30;;
7203;SDS011;3643;52.460;13.322;2023-02-15T04:57:49;68.80;;;29.33;;
7203;SDS011;3643;52.460;13.322;2023-02-15T05:00:18;71.73;;;32.03;;
7203;SDS011;3643;52.460;13.322;2023-02-15T05:02:46;77.63;;;31.27;;
7203;SDS011;3643;52.460;13.322;2023-02-15T05:05:15;74.63;;;29.40;;
7203;SDS011;3643;52.460;13.322;2023-02-15T05:07:43;79.70;;;31.50;;
7203;SDS011;3643;52.460;13.322;2023-02-15T05:10:12;79.03;;;31.20;;
7203;SDS011;3643;52.460;13.322;2023-02-15T05:12:41;83.03;;;30.80;;
7203;SDS011;3643;52.460;13.322;2023-02-15T05:15:09;83.17;;;32.57;;
7203;SDS011;3643;52.460;13.322;2023-02-15T05:17:37;86.00;;;33.80;;
7203;SDS011;3643;52.460;13.322;2023-02-15T05:20:06;84.33;;;31.73;;
7203;SDS011;3643;52.460;13.322;2023-02-15T05:22:34;83.73;;;31.23;;
7203;SDS011;3643;52.460;13.322;2023-02-15T05:25:02;78.90;;;29.87;;
7203;SDS011;3643;52.460;13.322;2023-02-15T05:27:50;80.57;;;32.17;;
7203;SDS011;3643;52.460;13.322;2023-02-15T05:30:35;83.13;;;30.63;;
7203;SDS011;3643;52.460;13.322;2023-02-15T05:33:03;94.23;;;34.43;;
7203;SDS011;3643;52.460;13.322;2023-02-15T05:35:31;89.77;;;33.20;;
7203;SDS011;3643;52.460;13.322;2023-02-15T05:38:00;79.67;;;31.53;;
7203;SDS011;3643;52.460;13.322;2023-02-15T05:40:28;92.80;;;34.90;;
7203;SDS011;3643;52.460;13.322;2023-02-15T05:42:58;88.40;;;33.00;;
7203;SDS011;3643;52.460;13.322;2023-02-15T05:45:26;93.87;;;32.60;;
7203;SDS011;3643;52.460;13.322;2023-02-15T05:47:54;92.93;;;33.07;;
7203;SDS011;3643;52.460;13.322;2023-02-15T05:50:24;99.30;;;34.03;;
7203;SDS011;3643;52.460;13.322;2023-02-15T05:52:52;80.80;;;31.80;;
7203;SDS011;3643;52.460;13.322;2023-02-15T05:55:20;85.73;;;31.87;;
7203;SDS011;3643;52.460;13.322;2023-02-15T05:57:48;89.57;;;32.37;;
7203;SDS011;3643;52.460;13.322;2023-02-15T06:00:18;96.10;;;32.90;;
7203;SDS011;3643;52.460;13.322;2023-02-15T06:02:47;88.40;;;32.87;;
7203;SDS011;3643;52.460;13.322;2023-02-15T06:05:15;88.93;;;30.47;;
7203;SDS011;3643;52.460;13.322;2023-02-15T06:07:43;86.30;;;32.77;;
7203;SDS011;3643;52.460;13.322;2023-02-15T06:10:12;92.00;;;31.50;;
7203;SDS011;3643;52.460;13.322;2023-02-15T06:12:40;89.63;;;33.57;;
7203;SDS011;3643;52.460;13.322;2023-02-15T06:15:08;85.30;;;31.27;;
7203;SDS011;3643;52.460;13.322;2023-02-15T06:17:38;104.00;;;35.13;;
7203;SDS011;3643;52.460;13.322;2023-02-15T06:20:08;99.87;;;35.13;;
7203;SDS011;3643;52.460;13.322;2023-02-15T06:22:37;148.53;;;35.00;;
7203;SDS011;3643;52.460;13.322;2023-02-15T06:25:05;126.90;;;31.77;;
7203;SDS011;3643;52.460;13.322;2023-02-15T06:27:36;127.70;;;35.57;;
7203;SDS011;3643;52.460;13.322;2023-02-15T06:30:04;80.97;;;30.63;;
7203;SDS011;3643;52.460;13.322;2023-02-15T06:32:33;93.53;;;30.93;;
7203;SDS011;3643;52.460;13.322;2023-02-15T06:35:03;83.47;;;31.17;;
7203;SDS011;3643;52.460;13.322;2023-02-15T06:37:32;89.97;;;29.33;;
7203;SDS011;3643;52.460;13.322;2023-02-15T06:40:00;110.37;;;35.37;;
7203;SDS011;3643;52.460;13.322;2023-02-15T06:42:30;120.20;;;35.13;;
7203;SDS011;3643;52.460;13.322;2023-02-15T06:44:58;114.70;;;32.97;;
7203;SDS011;3643;52.460;13.322;2023-02-15T06:47:26;114.40;;;33.23;;
7203;SDS011;3643;52.460;13.322;2023-02-15T06:49:55;102.77;;;33.20;;
7203;SDS011;3643;52.460;13.322;2023-02-15T06:52:25;84.20;;;32.07;;
7203;SDS011;3643;52.460;13.322;2023-02-15T06:54:54;161.07;;;35.27;;
7203;SDS011;3643;52.460;13.322;2023-02-15T06:57:22;89.97;;;31.47;;
7203;SDS011;3643;52.460;13.322;2023-02-15T06:59:50;111.83;;;33.17;;
7203;SDS011;3643;52.460;13.322;2023-02-15T07:02:19;81.50;;;29.47;;
7203;SDS011;3643;52.460;13.322;2023-02-15T07:04:47;82.00;;;30.17;;
7203;SDS011;3643;52.460;13.322;2023-02-15T07:07:15;86.70;;;30.90;;
7203;SDS011;3643;52.460;13.322;2023-02-15T07:09:45;78.13;;;28.47;;
7203;SDS011;3643;52.460;13.322;2023-02-15T07:12:13;120.40;;;33.80;;
7203;SDS011;3643;52.460;13.322;2023-02-15T07:14:57;137.23;;;33.17;;
7203;SDS011;3643;52.460;13.322;2023-02-15T07:17:26;75.97;;;27.77;;
7203;SDS011;3643;52.460;13.322;2023-02-15T07:20:03;106.60;;;29.10;;
7203;SDS011;3643;52.460;13.322;2023-02-15T07:22:34;91.17;;;29.30;;
7203;SDS011;3643;52.460;13.322;2023-02-15T07:25:05;79.20;;;28.80;;
7203;SDS011;3643;52.460;13.322;2023-02-15T07:27:35;74.53;;;27.47;;
7203;SDS011;3643;52.460;13.322;2023-02-15T07:30:04;98.33;;;29.83;;
7203;SDS011;3643;52.460;13.322;2023-02-15T07:32:34;97.07;;;29.87;;
7203;SDS011;3643;52.460;13.322;2023-02-15T07:35:02;62.00;;;24.80;;
7203;SDS011;3643;52.460;13.322;2023-02-15T07:37:30;60.87;;;26.47;;
7203;SDS011;3643;52.460;13.322;2023-02-15T07:39:59;75.83;;;29.37;;
7203;SDS011;3643;52.460;13.322;2023-02-15T07:42:28;65.37;;;28.10;;
7203;SDS011;3643;52.460;13.322;2023-02-15T07:44:58;64.33;;;26.17;;
7203;SDS011;3643;52.460;13.322;2023-02-15T07:47:27;93.23;;;29.83;;
7203;SDS011;3643;52.460;13.322;2023-02-15T07:49:55;66.87;;;26.87;;
7203;SDS011;3643;52.460;13.322;2023-02-15T07:52:23;106.07;;;28.57;;
7203;SDS011;3643;52.460;13.322;2023-02-15T07:54:53;77.93;;;28.70;;
7203;SDS011;3643;52.460;13.322;2023-02-15T07:57:22;81.83;;;28.27;;
7203;SDS011;3643;52.460;13.322;2023-02-15T07:59:51;80.13;;;29.40;;
7203;SDS011;3643;52.460;13.322;2023-02-15T08:02:19;79.27;;;29.33;;
7203;SDS011;3643;52.460;13.322;2023-02-15T08:04:47;78.60;;;29.83;;
7203;SDS011;3643;52.460;13.322;2023-02-15T08:07:15;67.53;;;28.10;;
7203;SDS011;3643;52.460;13.322;2023-02-15T08:09:44;74.87;;;28.77;;
7203;SDS011;3643;52.460;13.322;2023-02-15T08:12:12;69.27;;;26.90;;
7203;SDS011;3643;52.460;13.322;2023-02-15T08:14:40;94.80;;;26.77;;
7203;SDS011;3643;52.460;13.322;2023-02-15T08:17:09;76.73;;;25.70;;
7203;SDS011;3643;52.460;13.322;2023-02-15T08:19:37;67.90;;;26.13;;
7203;SDS011;3643;52.460;13.322;2023-02-15T08:22:06;58.13;;;25.40;;
7203;SDS011;3643;52.460;13.322;2023-02-15T08:24:36;52.33;;;24.17;;
7203;SDS011;3643;52.460;13.322;2023-02-15T08:27:05;51.93;;;22.83;;
7203;SDS011;3643;52.460;13.322;2023-02-15T08:29:35;59.17;;;25.73;;
7203;SDS011;3643;52.460;13.322;2023-02-15T08:32:05;53.40;;;23.60;;
7203;SDS011;3643;52.460;13.322;2023-02-15T08:34:37;52.73;;;23.60;;
7203;SDS011;3643;52.460;13.322;2023-02-15T08:37:06;49.97;;;23.80;;
7203;SDS011;3643;52.460;13.322;2023-02-15T08:39:35;47.03;;;21.10;;
7203;SDS011;3643;52.460;13.322;2023-02-15T08:42:03;51.97;;;23.10;;
7203;SDS011;3643;52.460;13.322;2023-02-15T08:44:32;38.77;;;19.43;;
7203;SDS011;3643;52.460;13.322;2023-02-15T08:47:00;41.50;;;20.60;;
7203;SDS011;3643;52.460;13.322;2023-02-15T08:49:30;51.23;;;23.07;;
7203;SDS011;3643;52.460;13.322;2023-02-15T08:51:59;48.93;;;22.27;;
7203;SDS011;3643;52.460;13.322;2023-02-15T08:54:28;41.30;;;21.17;;
7203;SDS011;3643;52.460;13.322;2023-02-15T08:56:56;41.77;;;21.40;;
7203;SDS011;3643;52.460;13.322;2023-02-15T08:59:25;54.47;;;23.40;;
7203;SDS011;3643;52.460;13.322;2023-02-15T09:01:53;42.97;;;22.33;;
7203;SDS011;3643;52.460;13.322;2023-02-15T09:04:22;43.63;;;21.90;;
7203;SDS011;3643;52.460;13.322;2023-02-15T09:06:50;44.90;;;22.37;;
7203;SDS011;3643;52.460;13.322;2023-02-15T09:09:20;42.80;;;21.10;;
7203;SDS011;3643;52.460;13.322;2023-02-15T09:11:50;42.03;;;20.27;;
7203;SDS011;3643;52.460;13.322;2023-02-15T09:14:24;44.37;;;22.67;;
7203;SDS011;3643;52.460;13.322;2023-02-15T09:16:53;41.47;;;21.03;;
7203;SDS011;3643;52.460;13.322;2023-02-15T09:19:22;44.50;;;20.43;;
7203;SDS011;3643;52.460;13.322;2023-02-15T09:21:51;43.27;;;21.13;;
7203;SDS011;3643;52.460;13.322;2023-02-15T09:24:21;44.90;;;22.40;;
7203;SDS011;3643;52.460;13.322;2023-02-15T09:26:49;41.03;;;20.03;;
7203;SDS011;3643;52.460;13.322;2023-02-15T09:29:18;41.23;;;20.43;;
7203;SDS011;3643;52.460;13.322;2023-02-15T09:31:47;41.13;;;19.73;;
7203;SDS011;3643;52.460;13.322;2023-02-15T09:34:17;41.23;;;19.80;;
7203;SDS011;3643;52.460;13.322;2023-02-15T09:36:46;38.37;;;19.90;;
7203;SDS011;3643;52.460;13.322;2023-02-15T09:39:15;39.17;;;19.93;;
7203;SDS011;3643;52.460;13.322;2023-02-15T09:42:07;37.77;;;20.40;;
7203;SDS011;3643;52.460;13.322;2023-02-15T09:45:05;36.03;;;19.73;;
7203;SDS011;3643;52.460;13.322;2023-02-15T09:48:06;38.17;;;19.37;;
7203;SDS011;3643;52.460;13.322;2023-02-15T09:50:51;41.77;;;19.87;;
7203;SDS011;3643;52.460;13.322;2023-02-15T09:53:32;39.07;;;20.40;;
7203;SDS011;3643;52.460;13.322;2023-02-15T09:56:14;38.53;;;19.60;;
7203;SDS011;3643;52.460;13.322;2023-02-15T09:58:50;42.83;;;20.47;;
7203;SDS011;3643;52.460;13.322;2023-02-15T10:01:27;38.30;;;19.93;;
7203;SDS011;3643;52.460;13.322;2023-02-15T10:04:09;41.97;;;22.47;;
7203;SDS011;3643;52.460;13.322;2023-02-15T10:07:04;39.13;;;19.77;;
7203;SDS011;3643;52.460;13.322;2023-02-15T10:09:42;39.93;;;20.83;;
7203;SDS011;3643;52.460;13.322;2023-02-15T10:12:22;43.97;;;21.50;;
7203;SDS011;3643;52.460;13.322;2023-02-15T10:18:09;42.30;;;21.97;;
7203;SDS011;3643;52.460;13.322;2023-02-15T10:20:49;40.97;;;21.53;;
7203;SDS011;3643;52.460;13.322;2023-02-15T10:23:29;41.73;;;21.33;;
7203;SDS011;3643;52.460;13.322;2023-02-15T10:26:08;42.57;;;21.00;;
7203;SDS011;3643;52.460;13.322;2023-02-15T10:28:44;40.47;;;21.67;;
7203;SDS011;3643;52.460;13.322;2023-02-15T10:31:20;36.53;;;19.23;;
7203;SDS011;3643;52.460;13.322;2023-02-15T10:36:49;40.43;;;21.43;;
7203;SDS011;3643;52.460;13.322;2023-02-15T10:39:33;38.10;;;19.80;;
7203;SDS011;3643;52.460;13.322;2023-02-15T10:42:10;37.93;;;20.37;;
7203;SDS011;3643;52.460;13.322;2023-02-15T10:44:49;35.10;;;19.03;;
7203;SDS011;3643;52.460;13.322;2023-02-15T10:50:27;36.13;;;21.30;;
7203;SDS011;3643;52.460;13.322;2023-02-15T10:53:10;42.73;;;21.57;;
7203;SDS011;3643;52.460;13.322;2023-02-15T10:55:52;41.73;;;21.13;;
7203;SDS011;3643;52.460;13.322;2023-02-15T10:58:29;39.33;;;21.07;;
7203;SDS011;3643;52.460;13.322;2023-02-15T11:01:07;40.30;;;20.53;;
7203;SDS011;3643;52.460;13.322;2023-02-15T11:03:51;38.40;;;21.03;;
7203;SDS011;3643;52.460;13.322;2023-02-15T11:06:35;37.27;;;20.60;;
7203;SDS011;3643;52.460;13.322;2023-02-15T11:09:08;35.83;;;19.60;;
7203;SDS011;3643;52.460;13.322;2023-02-15T11:11:39;37.50;;;20.47;;
7203;SDS011;3643;52.460;13.322;2023-02-15T11:14:12;34.03;;;18.47;;
7203;SDS011;3643;52.460;13.322;2023-02-15T11:16:46;34.10;;;19.63;;
7203;SDS011;3643;52.460;13.322;2023-02-15T11:19:21;38.37;;;20.90;;
7203;SDS011;3643;52.460;13.322;2023-02-15T11:21:55;37.70;;;20.40;;
7203;SDS011;3643;52.460;13.322;2023-02-15T11:24:27;35.70;;;19.50;;
7203;SDS011;3643;52.460;13.322;2023-02-15T11:26:57;35.57;;;19.43;;
7203;SDS011;3643;52.460;13.322;2023-02-15T11:29:31;38.87;;;20.33;;
7203;SDS011;3643;52.460;13.322;2023-02-15T11:32:02;36.33;;;18.87;;
7203;SDS011;3643;52.460;13.322;2023-02-15T11:34:49;36.93;;;20.13;;
7203;SDS011;3643;52.460;13.322;2023-02-15T11:37:22;39.03;;;20.57;;
7203;SDS011;3643;52.460;13.322;2023-02-15T11:39:55;33.93;;;18.93;;
7203;SDS011;3643;52.460;13.322;2023-02-15T11:42:23;33.57;;;18.53;;
7203;SDS011;3643;52.460;13.322;2023-02-15T11:44:56;32.07;;;18.90;;
7203;SDS011;3643;52.460;13.322;2023-02-15T11:47:29;33.03;;;18.63;;
7203;SDS011;3643;52.460;13.322;2023-02-15T11:49:59;27.97;;;16.23;;
7203;SDS011;3643;52.460;13.322;2023-02-15T11:52:27;29.70;;;16.43;;
7203;SDS011;3643;52.460;13.322;2023-02-15T11:54:55;28.13;;;17.40;;
7203;SDS011;3643;52.460;13.322;2023-02-15T11:57:25;32.07;;;18.47;;
7203;SDS011;3643;52.460;13.322;2023-02-15T12:00:00;31.90;;;18.87;;
7203;SDS011;3643;52.460;13.322;2023-02-15T12:02:31;35.30;;;19.13;;
7203;SDS011;3643;52.460;13.322;2023-02-15T12:05:07;33.17;;;18.20;;
7203;SDS011;3643;52.460;13.322;2023-02-15T12:07:40;31.40;;;17.70;;
7203;SDS011;3643;52.460;13.322;2023-02-15T12:10:17;31.63;;;18.53;;
7203;SDS011;3643;52.460;13.322;2023-02-15T12:13:07;32.97;;;17.57;;
7203;SDS011;3643;52.460;13.322;2023-02-15T12:15:38;34.50;;;18.03;;
7203;SDS011;3643;52.460;13.322;2023-02-15T12:18:16;33.83;;;18.47;;
7203;SDS011;3643;52.460;13.322;2023-02-15T12:20:49;28.10;;;16.43;;
7203;SDS011;3643;52.460;13.322;2023-02-15T12:23:17;32.00;;;17.70;;
7203;SDS011;3643;52.460;13.322;2023-02-15T12:25:49;34.10;;;19.27;;
7203;SDS011;3643;52.460;13.322;2023-02-15T12:28:22;31.90;;;17.23;;
7203;SDS011;3643;52.460;13.322;2023-02-15T12:30:53;27.17;;;15.47;;
7203;SDS011;3643;52.460;13.322;2023-02-15T12:33:26;32.13;;;17.77;;
7203;SDS011;3643;52.460;13.322;2023-02-15T12:35:59;30.37;;;16.37;;
7203;SDS011;3643;52.460;13.322;2023-02-15T12:38:31;26.87;;;16.70;;
7203;SDS011;3643;52.460;13.322;2023-02-15T12:41:01;29.67;;;18.10;;
7203;SDS011;3643;52.460;13.322;2023-02-15T12:43:32;30.17;;;17.13;;
7203;SDS011;3643;52.460;13.322;2023-02-15T12:46:19;27.43;;;16.57;;
7203;SDS011;3643;52.460;13.322;2023-02-15T12:49:04;25.63;;;15.70;;
7203;SDS011;3643;52.460;13.322;2023-02-15T12:51:47;28.83;;;17.37;;
7203;SDS011;3643;52.460;13.322;2023-02-15T12:54:36;30.43;;;17.10;;
7203;SDS011;3643;52.460;13.322;2023-02-15T13:00:00;22.50;;;14.40;;
7203;SDS011;3643;52.460;13.322;2023-02-15T13:02:35;25.23;;;14.67;;
7203;SDS011;3643;52.460;13.322;2023-02-15T13:05:14;31.13;;;18.03;;
7203;SDS011;3643;52.460;13.322;2023-02-15T13:07:52;24.93;;;15.53;;
7203;SDS011;3643;52.460;13.322;2023-02-15T13:10:25;25.50;;;15.63;;
7203;SDS011;3643;52.460;13.322;2023-02-15T13:12:56;31.60;;;17.30;;
7203;SDS011;3643;52.460;13.322;2023-02-15T13:15:28;29.97;;;16.77;;
7203;SDS011;3643;52.460;13.322;2023-02-15T13:18:02;23.47;;;13.63;;
7203;SDS011;3643;52.460;13.322;2023-02-15T13:20:33;25.90;;;15.40;;
7203;SDS011;3643;52.460;13.322;2023-02-15T13:23:12;23.17;;;14.37;;
7203;SDS011;3643;52.460;13.322;2023-02-15T13:25:54;23.33;;;14.40;;
7203;SDS011;3643;52.460;13.322;2023-02-15T13:28:26;21.50;;;13.77;;
7203;SDS011;3643;52.460;13.322;2023-02-15T13:31:01;26.50;;;15.40;;
7203;SDS011;3643;52.460;13.322;2023-02-15T13:33:31;21.53;;;13.30;;
7203;SDS011;3643;52.460;13.322;2023-02-15T13:36:03;22.97;;;14.10;;
7203;SDS011;3643;52.460;13.322;2023-02-15T13:38:45;22.87;;;12.77;;
7203;SDS011;3643;52.460;13.322;2023-02-15T13:41:20;19.67;;;11.87;;
7203;SDS011;3643;52.460;13.322;2023-02-15T13:43:56;21.97;;;12.87;;
7203;SDS011;3643;52.460;13.322;2023-02-15T13:46:38;19.00;;;11.87;;
7203;SDS011;3643;52.460;13.322;2023-02-15T13:49:18;20.67;;;11.53;;
7203;SDS011;3643;52.460;13.322;2023-02-15T13:52:00;17.30;;;11.33;;
7203;SDS011;3643;52.460;13.322;2023-02-15T13:54:46;16.33;;;11.13;;
7203;SDS011;3643;52.460;13.322;2023-02-15T13:57:29;17.47;;;11.17;;
7203;SDS011;3643;52.460;13.322;2023-02-15T14:00:18;16.37;;;10.83;;
7203;SDS011;3643;52.460;13.322;2023-02-15T14:05:57;20.47;;;12.33;;
7203;SDS011;3643;52.460;13.322;2023-02-15T14:08:46;18.83;;;11.60;;
7203;SDS011;3643;52.460;13.322;2023-02-15T14:11:30;24.13;;;16.03;;
7203;SDS011;3643;52.460;13.322;2023-02-15T14:14:12;20.97;;;13.57;;
7203;SDS011;3643;52.460;13.322;2023-02-15T14:16:55;21.30;;;12.47;;
7203;SDS011;3643;52.460;13.322;2023-02-15T14:19:35;16.30;;;11.07;;
7203;SDS011;3643;52.460;13.322;2023-02-15T14:22:13;20.17;;;13.53;;
7203;SDS011;3643;52.460;13.322;2023-02-15T14:24:52;26.80;;;14.00;;
7203;SDS011;3643;52.460;13.322;2023-02-15T14:27:34;21.97;;;13.63;;
7203;SDS011;3643;52.460;13.322;2023-02-15T14:30:13;18.87;;;11.67;;
7203;SDS011;3643;52.460;13.322;2023-02-15T14:32:48;38.13;;;16.43;;
7203;SDS011;3643;52.460;13.322;2023-02-15T14:35:20;23.70;;;13.03;;
7203;SDS011;3643;52.460;13.322;2023-02-15T14:37:53;21.27;;;12.13;;
7203;SDS011;3643;52.460;13.322;2023-02-15T14:40:31;20.17;;;12.20;;
7203;SDS011;3643;52.460;13.322;2023-02-15T14:43:27;20.60;;;11.67;;
7203;SDS011;3643;52.460;13.322;2023-02-15T14:46:07;22.50;;;14.03;;
7203;SDS011;3643;52.460;13.322;2023-02-15T14:48:45;18.20;;;12.10;;
7203;SDS011;3643;52.460;13.322;2023-02-15T14:57:28;22.27;;;12.73;;
7203;SDS011;3643;52.460;13.322;2023-02-15T15:00:05;18.27;;;12.07;;
7203;SDS011;3643;52.460;13.322;2023-02-15T15:02:59;17.27;;;10.83;;
7203;SDS011;3643;52.460;13.322;2023-02-15T15:06:22;24.40;;;12.53;;
7203;SDS011;3643;52.460;13.322;2023-02-15T15:08:44;17.50;;;11.40;;
7203;SDS011;3643;52.460;13.322;2023-02-15T15:11:37;17.37;;;11.23;;
7203;SDS011;3643;52.460;13.322;2023-02-15T15:14:10;16.80;;;10.80;;
7203;SDS011;3643;52.460;13.322;2023-02-15T15:16:55;18.27;;;10.87;;
7203;SDS011;3643;52.460;13.322;2023-02-15T15:22:35;17.00;;;9.73;;
7203;SDS011;3643;52.460;13.322;2023-02-15T15:25:07;13.60;;;9.30;;
7203;SDS011;3643;52.460;13.322;2023-02-15T15:33:39;14.57;;;8.67;;
7203;SDS011;3643;52.460;13.322;2023-02-15T15:36:39;10.80;;;7.47;;
7203;SDS011;3643;52.460;13.322;2023-02-15T15:42:37;12.17;;;7.83;;
7203;SDS011;3643;52.460;13.322;2023-02-15T15:48:23;11.10;;;7.93;;
7203;SDS011;3643;52.460;13.322;2023-02-15T15:50:59;13.50;;;9.30;;
7203;SDS011;3643;52.460;13.322;2023-02-15T15:53:33;14.53;;;8.53;;
7203;SDS011;3643;52.460;13.322;2023-02-15T15:56:11;13.43;;;8.13;;
7203;SDS011;3643;52.460;13.322;2023-02-15T15:58:43;12.80;;;7.90;;